sensor_id;sensor_type;location;lat;lon;timestamp;P1;durP1;ratioP1;P2;durP2;ratioP2
75984;SDS011;65033;44.660;37.758;2023-01-19T00:00:33;6.28;;;5.68;;
75984;SDS011;65033;44.660;37.758;2023-01-19T00:01:37;6.88;;;6.18;;
75984;SDS011;65033;44.660;37.758;2023-01-19T00:02:40;6.53;;;5.90;;
75984;SDS011;65033;44.660;37.758;2023-01-19T00:03:44;6.43;;;5.70;;
75984;SDS011;65033;44.660;37.758;2023-01-19T00:04:48;6.15;;;5.57;;
75984;SDS011;65033;44.660;37.758;2023-01-19T00:05:51;6.32;;;5.72;;
75984;SDS011;65033;44.660;37.758;2023-01-19T00:06:55;6.80;;;6.10;;
75984;SDS011;65033;44.660;37.758;2023-01-19T00:08:00;6.28;;;5.68;;
75984;SDS011;65033;44.660;37.758;2023-01-19T00:09:16;6.53;;;5.93;;
75984;SDS011;65033;44.660;37.758;2023-01-19T00:10:19;7.18;;;5.55;;
75984;SDS011;65033;44.660;37.758;2023-01-19T00:11:23;6.03;;;5.13;;
75984;SDS011;65033;44.660;37.758;2023-01-19T00:12:26;6.30;;;5.65;;
75984;SDS011;65033;44.660;37.758;2023-01-19T00:13:29;6.22;;;5.65;;
75984;SDS011;65033;44.660;37.758;2023-01-19T00:14:36;6.30;;;5.70;;
75984;SDS011;65033;44.660;37.758;2023-01-19T00:15:39;6.60;;;5.85;;
75984;SDS011;65033;44.660;37.758;2023-01-19T00:16:43;6.25;;;5.50;;
75984;SDS011;65033;44.660;37.758;2023-01-19T00:17:46;6.20;;;5.60;;
75984;SDS011;65033;44.660;37.758;2023-01-19T00:18:49;6.70;;;5.90;;
75984;SDS011;65033;44.660;37.758;2023-01-19T00:19:53;6.40;;;5.40;;
75984;SDS011;65033;44.660;37.758;2023-01-19T00:20:57;5.93;;;5.28;;
75984;SDS011;65033;44.660;37.758;2023-01-19T00:22:00;6.55;;;5.85;;
75984;SDS011;65033;44.660;37.758;2023-01-19T00:23:05;6.45;;;5.68;;
75984;SDS011;65033;44.660;37.758;2023-01-19T00:24:09;6.10;;;5.50;;
75984;SDS011;65033;44.660;37.758;2023-01-19T00:25:12;6.03;;;5.43;;
75984;SDS011;65033;44.660;37.758;2023-01-19T00:26:16;6.10;;;5.50;;
75984;SDS011;65033;44.660;37.758;2023-01-19T00:27:20;7.45;;;5.60;;
75984;SDS011;65033;44.660;37.758;2023-01-19T00:28:23;5.90;;;5.32;;
75984;SDS011;65033;44.660;37.758;2023-01-19T00:29:27;6.07;;;5.50;;
75984;SDS011;65033;44.660;37.758;2023-01-19T00:30:34;6.13;;;5.10;;
75984;SDS011;65033;44.660;37.758;2023-01-19T00:31:38;6.40;;;5.75;;
75984;SDS011;65033;44.660;37.758;2023-01-19T00:32:41;6.47;;;5.85;;
75984;SDS011;65033;44.660;37.758;2023-01-19T00:33:45;6.03;;;5.43;;
75984;SDS011;65033;44.660;37.758;2023-01-19T00:34:50;6.10;;;5.40;;
75984;SDS011;65033;44.660;37.758;2023-01-19T00:35:53;6.43;;;5.80;;
75984;SDS011;65033;44.660;37.758;2023-01-19T00:36:57;6.40;;;5.22;;
75984;SDS011;65033;44.660;37.758;2023-01-19T00:38:05;6.03;;;4.95;;
75984;SDS011;65033;44.660;37.758;2023-01-19T00:39:08;5.32;;;4.78;;
75984;SDS011;65033;44.660;37.758;2023-01-19T00:40:12;6.95;;;6.25;;
75984;SDS011;65033;44.660;37.758;2023-01-19T00:41:15;6.40;;;5.78;;
75984;SDS011;65033;44.660;37.758;2023-01-19T00:42:18;6.05;;;5.45;;
75984;SDS011;65033;44.660;37.758;2023-01-19T00:43:40;6.63;;;5.82;;
75984;SDS011;65033;44.660;37.758;2023-01-19T00:44:46;6.15;;;5.55;;
75984;SDS011;65033;44.660;37.758;2023-01-19T00:45:49;5.88;;;5.30;;
75984;SDS011;65033;44.660;37.758;2023-01-19T00:46:53;5.75;;;5.25;;
75984;SDS011;65033;44.660;37.758;2023-01-19T00:47:56;7.28;;;5.72;;
75984;SDS011;65033;44.660;37.758;2023-01-19T00:48:59;6.03;;;5.10;;
75984;SDS011;65033;44.660;37.758;2023-01-19T00:50:03;6.55;;;5.95;;
75984;SDS011;65033;44.660;37.758;2023-01-19T00:51:06;6.30;;;5.70;;
75984;SDS011;65033;44.660;37.758;2023-01-19T00:52:10;5.32;;;4.80;;
75984;SDS011;65033;44.660;37.758;2023-01-19T00:53:15;6.50;;;5.90;;
75984;SDS011;65033;44.660;37.758;2023-01-19T00:54:18;5.97;;;5.38;;
75984;SDS011;65033;44.660;37.758;2023-01-19T00:55:21;5.65;;;5.03;;
75984;SDS011;65033;44.660;37.758;2023-01-19T00:56:25;5.97;;;5.45;;
75984;SDS011;65033;44.660;37.758;2023-01-19T00:57:28;6.22;;;5.28;;
75984;SDS011;65033;44.660;37.758;2023-01-19T00:58:31;6.20;;;5.53;;
75984;SDS011;65033;44.660;37.758;2023-01-19T00:59:35;6.57;;;5.63;;
75984;SDS011;65033;44.660;37.758;2023-01-19T01:00:38;5.78;;;5.25;;
75984;SDS011;65033;44.660;37.758;2023-01-19T01:01:42;6.50;;;5.50;;
75984;SDS011;65033;44.660;37.758;2023-01-19T01:02:48;5.55;;;5.05;;
75984;SDS011;65033;44.660;37.758;2023-01-19T01:03:53;5.53;;;5.03;;
75984;SDS011;65033;44.660;37.758;2023-01-19T01:04:57;5.63;;;5.13;;
75984;SDS011;65033;44.660;37.758;2023-01-19T01:06:04;6.07;;;5.47;;
75984;SDS011;65033;44.660;37.758;2023-01-19T01:07:09;6.47;;;5.85;;
75984;SDS011;65033;44.660;37.758;2023-01-19T01:08:15;6.63;;;5.50;;
75984;SDS011;65033;44.660;37.758;2023-01-19T01:09:18;6.25;;;5.65;;
75984;SDS011;65033;44.660;37.758;2023-01-19T01:10:22;6.18;;;5.35;;
75984;SDS011;65033;44.660;37.758;2023-01-19T01:11:27;5.78;;;4.57;;
75984;SDS011;65033;44.660;37.758;2023-01-19T01:12:30;6.20;;;5.60;;
75984;SDS011;65033;44.660;37.758;2023-01-19T01:13:33;6.28;;;5.68;;
75984;SDS011;65033;44.660;37.758;2023-01-19T01:14:37;5.88;;;5.28;;
75984;SDS011;65033;44.660;37.758;2023-01-19T01:15:40;5.85;;;5.25;;
75984;SDS011;65033;44.660;37.758;2023-01-19T01:16:43;5.85;;;5.20;;
75984;SDS011;65033;44.660;37.758;2023-01-19T01:17:47;5.78;;;5.28;;
75984;SDS011;65033;44.660;37.758;2023-01-19T01:18:50;5.85;;;5.15;;
75984;SDS011;65033;44.660;37.758;2023-01-19T01:19:53;7.65;;;6.28;;
75984;SDS011;65033;44.660;37.758;2023-01-19T01:20:59;6.07;;;4.97;;
75984;SDS011;65033;44.660;37.758;2023-01-19T01:23:08;5.15;;;4.57;;
75984;SDS011;65033;44.660;37.758;2023-01-19T01:24:13;5.63;;;5.03;;
75984;SDS011;65033;44.660;37.758;2023-01-19T01:25:18;5.82;;;5.18;;
75984;SDS011;65033;44.660;37.758;2023-01-19T01:26:23;6.07;;;5.47;;
75984;SDS011;65033;44.660;37.758;2023-01-19T01:27:28;6.22;;;5.28;;
75984;SDS011;65033;44.660;37.758;2023-01-19T01:28:32;5.05;;;4.55;;
75984;SDS011;65033;44.660;37.758;2023-01-19T01:29:35;6.22;;;4.97;;
75984;SDS011;65033;44.660;37.758;2023-01-19T01:30:38;6.43;;;5.00;;
75984;SDS011;65033;44.660;37.758;2023-01-19T01:31:42;5.55;;;5.05;;
75984;SDS011;65033;44.660;37.758;2023-01-19T01:32:48;5.38;;;4.72;;
75984;SDS011;65033;44.660;37.758;2023-01-19T01:33:51;6.55;;;5.18;;
75984;SDS011;65033;44.660;37.758;2023-01-19T01:34:55;5.68;;;5.15;;
75984;SDS011;65033;44.660;37.758;2023-01-19T01:35:58;6.95;;;5.32;;
75984;SDS011;65033;44.660;37.758;2023-01-19T01:37:01;5.30;;;4.80;;
75984;SDS011;65033;44.660;37.758;2023-01-19T01:38:04;5.43;;;4.93;;
75984;SDS011;65033;44.660;37.758;2023-01-19T01:39:07;5.35;;;4.85;;
75984;SDS011;65033;44.660;37.758;2023-01-19T01:40:13;5.43;;;4.75;;
75984;SDS011;65033;44.660;37.758;2023-01-19T01:41:20;5.90;;;5.30;;
75984;SDS011;65033;44.660;37.758;2023-01-19T01:42:25;5.55;;;5.05;;
75984;SDS011;65033;44.660;37.758;2023-01-19T01:43:40;5.50;;;5.00;;
75984;SDS011;65033;44.660;37.758;2023-01-19T01:44:47;6.00;;;5.40;;
75984;SDS011;65033;44.660;37.758;2023-01-19T01:45:51;5.65;;;5.15;;
75984;SDS011;65033;44.660;37.758;2023-01-19T01:46:56;5.55;;;5.05;;
75984;SDS011;65033;44.660;37.758;2023-01-19T01:48:01;5.60;;;5.10;;
75984;SDS011;65033;44.660;37.758;2023-01-19T01:49:08;6.70;;;4.93;;
75984;SDS011;65033;44.660;37.758;2023-01-19T01:50:15;5.28;;;4.78;;
75984;SDS011;65033;44.660;37.758;2023-01-19T01:51:23;5.00;;;4.50;;
75984;SDS011;65033;44.660;37.758;2023-01-19T01:52:30;5.68;;;5.15;;
75984;SDS011;65033;44.660;37.758;2023-01-19T01:53:35;5.93;;;5.32;;
75984;SDS011;65033;44.660;37.758;2023-01-19T01:54:40;5.80;;;5.10;;
75984;SDS011;65033;44.660;37.758;2023-01-19T01:55:46;5.78;;;5.13;;
75984;SDS011;65033;44.660;37.758;2023-01-19T01:56:51;6.47;;;5.82;;
75984;SDS011;65033;44.660;37.758;2023-01-19T01:57:59;6.03;;;5.40;;
75984;SDS011;65033;44.660;37.758;2023-01-19T01:59:06;5.60;;;5.03;;
75984;SDS011;65033;44.660;37.758;2023-01-19T02:00:12;5.30;;;4.78;;
75984;SDS011;65033;44.660;37.758;2023-01-19T02:01:18;4.93;;;4.53;;
75984;SDS011;65033;44.660;37.758;2023-01-19T02:02:39;5.95;;;4.80;;
75984;SDS011;65033;44.660;37.758;2023-01-19T02:03:52;5.10;;;4.53;;
75984;SDS011;65033;44.660;37.758;2023-01-19T02:04:57;5.75;;;4.95;;
75984;SDS011;65033;44.660;37.758;2023-01-19T02:06:05;5.72;;;5.10;;
75984;SDS011;65033;44.660;37.758;2023-01-19T02:07:10;6.72;;;5.20;;
75984;SDS011;65033;44.660;37.758;2023-01-19T02:08:38;5.65;;;4.53;;
75984;SDS011;65033;44.660;37.758;2023-01-19T02:10:04;5.70;;;5.20;;
75984;SDS011;65033;44.660;37.758;2023-01-19T02:11:27;4.93;;;4.43;;
75984;SDS011;65033;44.660;37.758;2023-01-19T02:12:50;5.57;;;5.07;;
75984;SDS011;65033;44.660;37.758;2023-01-19T02:14:11;5.65;;;4.85;;
75984;SDS011;65033;44.660;37.758;2023-01-19T02:15:16;5.35;;;4.57;;
75984;SDS011;65033;44.660;37.758;2023-01-19T02:16:21;6.13;;;5.53;;
75984;SDS011;65033;44.660;37.758;2023-01-19T02:17:25;5.40;;;4.90;;
75984;SDS011;65033;44.660;37.758;2023-01-19T02:18:29;5.63;;;4.90;;
75984;SDS011;65033;44.660;37.758;2023-01-19T02:19:35;5.60;;;5.00;;
75984;SDS011;65033;44.660;37.758;2023-01-19T02:20:45;4.97;;;4.47;;
75984;SDS011;65033;44.660;37.758;2023-01-19T02:21:56;6.18;;;5.32;;
75984;SDS011;65033;44.660;37.758;2023-01-19T02:23:12;5.07;;;4.57;;
75984;SDS011;65033;44.660;37.758;2023-01-19T02:24:22;5.10;;;4.60;;
75984;SDS011;65033;44.660;37.758;2023-01-19T02:25:26;5.25;;;4.75;;
75984;SDS011;65033;44.660;37.758;2023-01-19T02:26:32;5.75;;;5.05;;
75984;SDS011;65033;44.660;37.758;2023-01-19T02:27:39;5.38;;;4.63;;
75984;SDS011;65033;44.660;37.758;2023-01-19T02:28:43;5.47;;;4.97;;
75984;SDS011;65033;44.660;37.758;2023-01-19T02:29:50;4.80;;;4.35;;
75984;SDS011;65033;44.660;37.758;2023-01-19T02:30:54;5.38;;;4.88;;
75984;SDS011;65033;44.660;37.758;2023-01-19T02:31:57;5.50;;;4.75;;
75984;SDS011;65033;44.660;37.758;2023-01-19T02:33:02;5.40;;;4.90;;
75984;SDS011;65033;44.660;37.758;2023-01-19T02:34:06;5.40;;;4.90;;
75984;SDS011;65033;44.660;37.758;2023-01-19T02:35:13;5.38;;;4.88;;
75984;SDS011;65033;44.660;37.758;2023-01-19T02:36:18;5.20;;;4.70;;
75984;SDS011;65033;44.660;37.758;2023-01-19T02:37:26;4.82;;;4.43;;
75984;SDS011;65033;44.660;37.758;2023-01-19T02:38:34;6.10;;;5.25;;
75984;SDS011;65033;44.660;37.758;2023-01-19T02:39:44;6.00;;;5.40;;
75984;SDS011;65033;44.660;37.758;2023-01-19T02:40:52;5.85;;;5.22;;
75984;SDS011;65033;44.660;37.758;2023-01-19T02:41:58;5.18;;;4.78;;
75984;SDS011;65033;44.660;37.758;2023-01-19T02:43:04;4.80;;;4.40;;
75984;SDS011;65033;44.660;37.758;2023-01-19T02:44:10;4.93;;;4.43;;
75984;SDS011;65033;44.660;37.758;2023-01-19T02:45:14;5.47;;;4.85;;
75984;SDS011;65033;44.660;37.758;2023-01-19T02:46:20;4.95;;;4.47;;
75984;SDS011;65033;44.660;37.758;2023-01-19T02:47:24;5.53;;;5.03;;
75984;SDS011;65033;44.660;37.758;2023-01-19T02:48:27;5.38;;;4.72;;
75984;SDS011;65033;44.660;37.758;2023-01-19T02:49:31;5.28;;;4.53;;
75984;SDS011;65033;44.660;37.758;2023-01-19T02:50:38;6.18;;;5.63;;
75984;SDS011;65033;44.660;37.758;2023-01-19T02:51:43;5.55;;;4.85;;
75984;SDS011;65033;44.660;37.758;2023-01-19T02:52:47;5.40;;;4.90;;
75984;SDS011;65033;44.660;37.758;2023-01-19T02:55:21;5.28;;;4.60;;
75984;SDS011;65033;44.660;37.758;2023-01-19T02:56:34;5.95;;;5.35;;
75984;SDS011;65033;44.660;37.758;2023-01-19T02:58:06;5.95;;;5.43;;
75984;SDS011;65033;44.660;37.758;2023-01-19T02:59:17;5.75;;;5.13;;
75984;SDS011;65033;44.660;37.758;2023-01-19T03:00:39;5.15;;;4.65;;
75984;SDS011;65033;44.660;37.758;2023-01-19T03:01:59;5.07;;;4.57;;
75984;SDS011;65033;44.660;37.758;2023-01-19T03:03:15;5.40;;;4.13;;
75984;SDS011;65033;44.660;37.758;2023-01-19T03:04:31;4.95;;;4.45;;
75984;SDS011;65033;44.660;37.758;2023-01-19T03:05:45;5.85;;;5.07;;
75984;SDS011;65033;44.660;37.758;2023-01-19T03:06:58;5.00;;;4.55;;
75984;SDS011;65033;44.660;37.758;2023-01-19T03:08:10;5.50;;;5.00;;
75984;SDS011;65033;44.660;37.758;2023-01-19T03:09:25;5.22;;;4.65;;
75984;SDS011;65033;44.660;37.758;2023-01-19T03:10:35;5.47;;;4.45;;
75984;SDS011;65033;44.660;37.758;2023-01-19T03:11:45;5.20;;;4.70;;
75984;SDS011;65033;44.660;37.758;2023-01-19T03:12:56;5.18;;;4.20;;
75984;SDS011;65033;44.660;37.758;2023-01-19T03:14:06;4.95;;;4.45;;
75984;SDS011;65033;44.660;37.758;2023-01-19T03:15:16;5.68;;;5.18;;
75984;SDS011;65033;44.660;37.758;2023-01-19T03:16:22;5.60;;;5.10;;
75984;SDS011;65033;44.660;37.758;2023-01-19T03:17:31;5.25;;;4.75;;
75984;SDS011;65033;44.660;37.758;2023-01-19T03:18:36;5.20;;;4.70;;
75984;SDS011;65033;44.660;37.758;2023-01-19T03:19:42;5.13;;;4.63;;
75984;SDS011;65033;44.660;37.758;2023-01-19T03:20:49;5.28;;;4.78;;
75984;SDS011;65033;44.660;37.758;2023-01-19T03:21:56;5.10;;;4.60;;
75984;SDS011;65033;44.660;37.758;2023-01-19T03:23:01;5.18;;;4.68;;
75984;SDS011;65033;44.660;37.758;2023-01-19T03:24:08;4.88;;;4.38;;
75984;SDS011;65033;44.660;37.758;2023-01-19T03:25:15;5.72;;;4.20;;
75984;SDS011;65033;44.660;37.758;2023-01-19T03:26:24;4.65;;;4.25;;
75984;SDS011;65033;44.660;37.758;2023-01-19T03:28:35;5.32;;;4.82;;
75984;SDS011;65033;44.660;37.758;2023-01-19T03:29:44;4.78;;;4.32;;
75984;SDS011;65033;44.660;37.758;2023-01-19T03:30:52;4.30;;;3.90;;
75984;SDS011;65033;44.660;37.758;2023-01-19T03:33:12;5.10;;;4.60;;
75984;SDS011;65033;44.660;37.758;2023-01-19T03:34:18;5.78;;;5.03;;
75984;SDS011;65033;44.660;37.758;2023-01-19T03:35:25;5.20;;;4.70;;
75984;SDS011;65033;44.660;37.758;2023-01-19T03:36:33;5.50;;;4.75;;
75984;SDS011;65033;44.660;37.758;2023-01-19T03:37:39;5.38;;;4.88;;
75984;SDS011;65033;44.660;37.758;2023-01-19T03:38:45;4.97;;;4.45;;
75984;SDS011;65033;44.660;37.758;2023-01-19T03:39:51;4.90;;;4.40;;
75984;SDS011;65033;44.660;37.758;2023-01-19T03:40:59;5.25;;;4.45;;
75984;SDS011;65033;44.660;37.758;2023-01-19T03:42:08;4.70;;;4.30;;
75984;SDS011;65033;44.660;37.758;2023-01-19T03:43:15;5.32;;;4.43;;
75984;SDS011;65033;44.660;37.758;2023-01-19T03:44:20;5.50;;;5.00;;
75984;SDS011;65033;44.660;37.758;2023-01-19T03:45:24;5.20;;;4.38;;
75984;SDS011;65033;44.660;37.758;2023-01-19T03:46:29;5.30;;;4.80;;
75984;SDS011;65033;44.660;37.758;2023-01-19T03:47:33;6.43;;;5.82;;
75984;SDS011;65033;44.660;37.758;2023-01-19T03:48:37;5.95;;;4.72;;
75984;SDS011;65033;44.660;37.758;2023-01-19T03:49:42;5.20;;;4.70;;
75984;SDS011;65033;44.660;37.758;2023-01-19T03:50:47;5.30;;;4.80;;
75984;SDS011;65033;44.660;37.758;2023-01-19T03:51:50;5.20;;;4.70;;
75984;SDS011;65033;44.660;37.758;2023-01-19T03:53:00;5.07;;;4.38;;
75984;SDS011;65033;44.660;37.758;2023-01-19T03:54:08;4.70;;;4.20;;
75984;SDS011;65033;44.660;37.758;2023-01-19T03:55:12;4.50;;;4.10;;
75984;SDS011;65033;44.660;37.758;2023-01-19T03:56:16;5.43;;;4.90;;
75984;SDS011;65033;44.660;37.758;2023-01-19T03:57:22;6.55;;;4.45;;
75984;SDS011;65033;44.660;37.758;2023-01-19T03:58:25;4.93;;;4.43;;
75984;SDS011;65033;44.660;37.758;2023-01-19T03:59:29;5.68;;;5.13;;
75984;SDS011;65033;44.660;37.758;2023-01-19T04:00:33;5.10;;;4.60;;
75984;SDS011;65033;44.660;37.758;2023-01-19T04:01:38;5.10;;;4.60;;
75984;SDS011;65033;44.660;37.758;2023-01-19T04:02:42;4.82;;;4.40;;
75984;SDS011;65033;44.660;37.758;2023-01-19T04:03:45;4.90;;;4.43;;
75984;SDS011;65033;44.660;37.758;2023-01-19T04:04:48;5.63;;;5.07;;
75984;SDS011;65033;44.660;37.758;2023-01-19T04:05:52;5.43;;;4.93;;
75984;SDS011;65033;44.660;37.758;2023-01-19T04:06:57;4.88;;;4.35;;
75984;SDS011;65033;44.660;37.758;2023-01-19T04:08:01;6.15;;;5.30;;
75984;SDS011;65033;44.660;37.758;2023-01-19T04:09:04;4.72;;;4.32;;
75984;SDS011;65033;44.660;37.758;2023-01-19T04:10:08;5.40;;;4.90;;
75984;SDS011;65033;44.660;37.758;2023-01-19T04:11:14;6.38;;;5.78;;
75984;SDS011;65033;44.660;37.758;2023-01-19T04:12:17;5.32;;;4.93;;
75984;SDS011;65033;44.660;37.758;2023-01-19T04:13:22;5.20;;;4.70;;
75984;SDS011;65033;44.660;37.758;2023-01-19T04:14:25;5.32;;;4.82;;
75984;SDS011;65033;44.660;37.758;2023-01-19T04:15:29;6.10;;;5.18;;
75984;SDS011;65033;44.660;37.758;2023-01-19T04:16:33;5.63;;;5.05;;
75984;SDS011;65033;44.660;37.758;2023-01-19T04:17:36;5.30;;;4.80;;
75984;SDS011;65033;44.660;37.758;2023-01-19T04:18:40;6.22;;;5.63;;
75984;SDS011;65033;44.660;37.758;2023-01-19T04:19:43;5.32;;;4.60;;
75984;SDS011;65033;44.660;37.758;2023-01-19T04:20:47;5.53;;;4.80;;
75984;SDS011;65033;44.660;37.758;2023-01-19T04:21:50;6.28;;;5.68;;
75984;SDS011;65033;44.660;37.758;2023-01-19T04:22:54;5.93;;;5.32;;
75984;SDS011;65033;44.660;37.758;2023-01-19T04:24:00;6.70;;;6.00;;
75984;SDS011;65033;44.660;37.758;2023-01-19T04:25:04;7.57;;;6.57;;
75984;SDS011;65033;44.660;37.758;2023-01-19T04:26:08;6.85;;;6.15;;
75984;SDS011;65033;44.660;37.758;2023-01-19T04:27:12;7.78;;;5.85;;
75984;SDS011;65033;44.660;37.758;2023-01-19T04:28:17;7.20;;;6.03;;
75984;SDS011;65033;44.660;37.758;2023-01-19T04:29:22;6.32;;;5.40;;
75984;SDS011;65033;44.660;37.758;2023-01-19T04:30:26;7.00;;;6.03;;
75984;SDS011;65033;44.660;37.758;2023-01-19T04:31:29;6.30;;;5.65;;
75984;SDS011;65033;44.660;37.758;2023-01-19T04:32:32;9.23;;;6.65;;
75984;SDS011;65033;44.660;37.758;2023-01-19T04:33:36;6.15;;;5.55;;
75984;SDS011;65033;44.660;37.758;2023-01-19T04:34:39;7.40;;;6.13;;
75984;SDS011;65033;44.660;37.758;2023-01-19T04:35:43;7.60;;;6.05;;
75984;SDS011;65033;44.660;37.758;2023-01-19T04:36:46;7.13;;;6.28;;
75984;SDS011;65033;44.660;37.758;2023-01-19T04:37:52;8.05;;;6.55;;
75984;SDS011;65033;44.660;37.758;2023-01-19T04:38:55;6.65;;;6.05;;
75984;SDS011;65033;44.660;37.758;2023-01-19T04:40:02;8.02;;;6.28;;
75984;SDS011;65033;44.660;37.758;2023-01-19T04:41:06;7.75;;;6.72;;
75984;SDS011;65033;44.660;37.758;2023-01-19T04:42:09;7.03;;;6.32;;
75984;SDS011;65033;44.660;37.758;2023-01-19T04:43:12;7.38;;;6.40;;
75984;SDS011;65033;44.660;37.758;2023-01-19T04:44:16;7.43;;;6.28;;
75984;SDS011;65033;44.660;37.758;2023-01-19T04:45:20;8.02;;;6.47;;
75984;SDS011;65033;44.660;37.758;2023-01-19T04:46:24;6.80;;;5.93;;
75984;SDS011;65033;44.660;37.758;2023-01-19T04:47:27;7.57;;;6.72;;
75984;SDS011;65033;44.660;37.758;2023-01-19T04:48:30;6.90;;;6.20;;
75984;SDS011;65033;44.660;37.758;2023-01-19T04:49:34;6.85;;;6.10;;
75984;SDS011;65033;44.660;37.758;2023-01-19T04:50:40;7.35;;;6.43;;
75984;SDS011;65033;44.660;37.758;2023-01-19T04:51:43;8.50;;;6.50;;
75984;SDS011;65033;44.660;37.758;2023-01-19T04:52:47;7.53;;;6.30;;
75984;SDS011;65033;44.660;37.758;2023-01-19T04:53:50;6.88;;;6.03;;
75984;SDS011;65033;44.660;37.758;2023-01-19T04:54:53;8.05;;;6.63;;
75984;SDS011;65033;44.660;37.758;2023-01-19T04:55:57;7.00;;;6.05;;
75984;SDS011;65033;44.660;37.758;2023-01-19T04:57:02;8.15;;;5.88;;
75984;SDS011;65033;44.660;37.758;2023-01-19T04:58:05;6.97;;;6.00;;
75984;SDS011;65033;44.660;37.758;2023-01-19T04:59:09;7.18;;;6.47;;
75984;SDS011;65033;44.660;37.758;2023-01-19T05:00:12;7.20;;;6.50;;
75984;SDS011;65033;44.660;37.758;2023-01-19T05:01:20;7.22;;;5.97;;
75984;SDS011;65033;44.660;37.758;2023-01-19T05:02:25;7.80;;;6.90;;
75984;SDS011;65033;44.660;37.758;2023-01-19T05:03:28;7.35;;;6.45;;
75984;SDS011;65033;44.660;37.758;2023-01-19T05:04:31;8.07;;;7.28;;
75984;SDS011;65033;44.660;37.758;2023-01-19T05:05:35;6.13;;;5.53;;
75984;SDS011;65033;44.660;37.758;2023-01-19T05:06:40;7.32;;;6.10;;
75984;SDS011;65033;44.660;37.758;2023-01-19T05:07:43;8.75;;;6.68;;
75984;SDS011;65033;44.660;37.758;2023-01-19T05:08:47;7.50;;;6.70;;
75984;SDS011;65033;44.660;37.758;2023-01-19T05:09:50;9.52;;;6.85;;
75984;SDS011;65033;44.660;37.758;2023-01-19T05:10:54;7.82;;;6.20;;
75984;SDS011;65033;44.660;37.758;2023-01-19T05:12:01;7.57;;;6.72;;
75984;SDS011;65033;44.660;37.758;2023-01-19T05:13:04;7.45;;;6.75;;
75984;SDS011;65033;44.660;37.758;2023-01-19T05:14:07;7.40;;;6.70;;
75984;SDS011;65033;44.660;37.758;2023-01-19T05:15:11;8.57;;;6.40;;
75984;SDS011;65033;44.660;37.758;2023-01-19T05:16:17;8.52;;;6.97;;
75984;SDS011;65033;44.660;37.758;2023-01-19T05:17:22;7.97;;;6.28;;
75984;SDS011;65033;44.660;37.758;2023-01-19T05:18:25;7.30;;;6.60;;
75984;SDS011;65033;44.660;37.758;2023-01-19T05:19:28;7.50;;;5.97;;
75984;SDS011;65033;44.660;37.758;2023-01-19T05:20:32;7.13;;;6.43;;
75984;SDS011;65033;44.660;37.758;2023-01-19T05:21:35;8.15;;;7.35;;
75984;SDS011;65033;44.660;37.758;2023-01-19T05:22:38;10.57;;;7.60;;
75984;SDS011;65033;44.660;37.758;2023-01-19T05:23:42;9.40;;;8.40;;
75984;SDS011;65033;44.660;37.758;2023-01-19T05:24:45;14.95;;;10.60;;
75984;SDS011;65033;44.660;37.758;2023-01-19T05:25:49;14.90;;;10.68;;
75984;SDS011;65033;44.660;37.758;2023-01-19T05:26:52;9.88;;;8.88;;
75984;SDS011;65033;44.660;37.758;2023-01-19T05:27:55;12.75;;;9.95;;
75984;SDS011;65033;44.660;37.758;2023-01-19T05:28:59;14.23;;;9.80;;
75984;SDS011;65033;44.660;37.758;2023-01-19T05:30:02;10.18;;;9.07;;
75984;SDS011;65033;44.660;37.758;2023-01-19T05:31:06;8.95;;;8.05;;
75984;SDS011;65033;44.660;37.758;2023-01-19T05:32:10;11.88;;;8.57;;
75984;SDS011;65033;44.660;37.758;2023-01-19T05:33:16;10.25;;;9.15;;
75984;SDS011;65033;44.660;37.758;2023-01-19T05:34:19;14.88;;;8.82;;
75984;SDS011;65033;44.660;37.758;2023-01-19T05:35:23;10.95;;;8.73;;
75984;SDS011;65033;44.660;37.758;2023-01-19T05:36:36;10.00;;;8.98;;
75984;SDS011;65033;44.660;37.758;2023-01-19T05:37:40;10.50;;;9.18;;
75984;SDS011;65033;44.660;37.758;2023-01-19T05:38:43;10.20;;;9.07;;
75984;SDS011;65033;44.660;37.758;2023-01-19T05:39:46;10.13;;;9.13;;
75984;SDS011;65033;44.660;37.758;2023-01-19T05:40:54;10.95;;;9.77;;
75984;SDS011;65033;44.660;37.758;2023-01-19T05:41:59;11.00;;;9.82;;
75984;SDS011;65033;44.660;37.758;2023-01-19T05:43:02;12.68;;;11.43;;
75984;SDS011;65033;44.660;37.758;2023-01-19T05:44:06;13.23;;;11.55;;
75984;SDS011;65033;44.660;37.758;2023-01-19T05:45:11;12.32;;;9.88;;
75984;SDS011;65033;44.660;37.758;2023-01-19T05:46:14;11.95;;;9.50;;
75984;SDS011;65033;44.660;37.758;2023-01-19T05:47:18;12.35;;;9.88;;
75984;SDS011;65033;44.660;37.758;2023-01-19T05:48:22;12.07;;;9.82;;
75984;SDS011;65033;44.660;37.758;2023-01-19T05:49:26;10.68;;;9.57;;
75984;SDS011;65033;44.660;37.758;2023-01-19T05:50:29;12.23;;;10.05;;
75984;SDS011;65033;44.660;37.758;2023-01-19T05:51:33;12.35;;;9.65;;
75984;SDS011;65033;44.660;37.758;2023-01-19T05:52:42;11.18;;;10.07;;
75984;SDS011;65033;44.660;37.758;2023-01-19T05:53:45;14.23;;;10.88;;
75984;SDS011;65033;44.660;37.758;2023-01-19T05:54:49;11.50;;;10.18;;
75984;SDS011;65033;44.660;37.758;2023-01-19T05:55:53;11.57;;;9.85;;
75984;SDS011;65033;44.660;37.758;2023-01-19T05:57:01;11.35;;;10.25;;
75984;SDS011;65033;44.660;37.758;2023-01-19T05:58:05;12.25;;;8.95;;
75984;SDS011;65033;44.660;37.758;2023-01-19T05:59:08;12.00;;;10.15;;
75984;SDS011;65033;44.660;37.758;2023-01-19T06:00:12;12.05;;;10.82;;
75984;SDS011;65033;44.660;37.758;2023-01-19T06:01:17;11.50;;;10.27;;
75984;SDS011;65033;44.660;37.758;2023-01-19T06:02:21;10.52;;;9.48;;
75984;SDS011;65033;44.660;37.758;2023-01-19T06:03:31;11.68;;;10.57;;
75984;SDS011;65033;44.660;37.758;2023-01-19T06:04:35;11.52;;;10.23;;
75984;SDS011;65033;44.660;37.758;2023-01-19T06:05:38;12.98;;;10.18;;
75984;SDS011;65033;44.660;37.758;2023-01-19T06:06:42;11.65;;;10.30;;
75984;SDS011;65033;44.660;37.758;2023-01-19T06:07:45;11.10;;;10.00;;
75984;SDS011;65033;44.660;37.758;2023-01-19T06:08:49;13.30;;;10.70;;
75984;SDS011;65033;44.660;37.758;2023-01-19T06:09:52;11.63;;;10.38;;
75984;SDS011;65033;44.660;37.758;2023-01-19T06:10:58;13.15;;;10.25;;
75984;SDS011;65033;44.660;37.758;2023-01-19T06:12:02;20.33;;;10.10;;
75984;SDS011;65033;44.660;37.758;2023-01-19T06:13:05;12.13;;;9.98;;
75984;SDS011;65033;44.660;37.758;2023-01-19T06:14:10;12.27;;;10.57;;
75984;SDS011;65033;44.660;37.758;2023-01-19T06:15:14;11.40;;;10.27;;
75984;SDS011;65033;44.660;37.758;2023-01-19T06:16:17;12.43;;;10.85;;
75984;SDS011;65033;44.660;37.758;2023-01-19T06:17:23;11.15;;;9.98;;
75984;SDS011;65033;44.660;37.758;2023-01-19T06:18:27;11.70;;;9.77;;
75984;SDS011;65033;44.660;37.758;2023-01-19T06:19:34;12.00;;;10.35;;
75984;SDS011;65033;44.660;37.758;2023-01-19T06:20:37;12.23;;;9.73;;
75984;SDS011;65033;44.660;37.758;2023-01-19T06:21:41;10.77;;;8.68;;
75984;SDS011;65033;44.660;37.758;2023-01-19T06:22:50;10.70;;;9.50;;
75984;SDS011;65033;44.660;37.758;2023-01-19T06:23:54;11.40;;;9.52;;
75984;SDS011;65033;44.660;37.758;2023-01-19T06:24:59;10.95;;;9.85;;
75984;SDS011;65033;44.660;37.758;2023-01-19T06:26:02;10.75;;;9.70;;
75984;SDS011;65033;44.660;37.758;2023-01-19T06:27:06;11.50;;;9.88;;
75984;SDS011;65033;44.660;37.758;2023-01-19T06:28:10;12.18;;;10.13;;
75984;SDS011;65033;44.660;37.758;2023-01-19T06:29:13;12.25;;;9.68;;
75984;SDS011;65033;44.660;37.758;2023-01-19T06:30:16;11.50;;;8.65;;
75984;SDS011;65033;44.660;37.758;2023-01-19T06:31:20;11.27;;;10.10;;
75984;SDS011;65033;44.660;37.758;2023-01-19T06:32:24;11.23;;;9.68;;